Time;durP1;ratioP1;P1;durP2;ratioP2;P2;SDS_P1;SDS_P2;PMS_P1;PMS_P2;Temp;Humidity;BMP_temperature;BMP_pressure;BME280_temperature;BME280_humidity;BME280_pressure;Samples;Min_cycle;Max_cycle;Signal;HPM_P1;HPM_P2
2023/08/13 00:00:48;;;;;;;4.73;3.37;;;;;;;18.40;100.00;100926.16;5014586;28;20701;-85
2023/08/13 00:03:15;;;;;;;2.80;2.60;;;;;;;18.39;100.00;100928.00;5004573;28;20295;-83
2023/08/13 00:05:41;;;;;;;6.07;3.30;;;;;;;18.38;100.00;100926.31;5010173;28;20205;-83
2023/08/13 00:08:09;;;;;;;4.80;3.00;;;;;;;18.38;100.00;100931.69;5000263;28;20220;-86
2023/08/13 00:10:35;;;;;;;5.10;2.77;;;;;;;18.38;100.00;100922.75;5001470;28;20651;-85
2023/08/13 00:13:02;;;;;;;3.87;2.50;;;;;;;18.36;100.00;100931.00;5013984;28;20222;-85
2023/08/13 00:15:28;;;;;;;4.17;3.33;;;;;;;18.36;100.00;100925.59;5012976;28;20220;-84
2023/08/13 00:17:55;;;;;;;5.63;2.87;;;;;;;18.36;100.00;100922.03;5020295;28;20202;-84
2023/08/13 00:20:21;;;;;;;3.20;2.70;;;;;;;18.35;100.00;100933.81;5015818;28;20311;-84
2023/08/13 00:22:48;;;;;;;4.53;3.20;;;;;;;18.34;100.00;100926.72;5014304;28;20226;-85
2023/08/13 00:25:15;;;;;;;4.80;3.03;;;;;;;18.32;100.00;100931.41;5019208;28;20279;-84
2023/08/13 00:27:41;;;;;;;5.23;2.83;;;;;;;18.30;100.00;100933.38;5013538;28;20658;-84
2023/08/13 00:30:09;;;;;;;4.97;2.80;;;;;;;18.29;100.00;100934.38;5017460;28;20211;-84
2023/08/13 00:32:36;;;;;;;6.23;2.87;;;;;;;18.29;100.00;100932.53;5013192;28;20306;-85
2023/08/13 00:35:03;;;;;;;3.23;2.20;;;;;;;18.27;100.00;100941.78;5022943;28;20213;-85
2023/08/13 00:37:29;;;;;;;3.70;2.70;;;;;;;18.27;100.00;100931.00;5006712;28;20809;-86
2023/08/13 00:39:56;;;;;;;5.30;2.93;;;;;;;18.26;100.00;100943.63;5025814;28;20579;-84
2023/08/13 00:42:23;;;;;;;2.90;2.60;;;;;;;18.28;100.00;100940.75;5011323;28;20229;-85
2023/08/13 00:44:50;;;;;;;2.97;2.67;;;;;;;18.26;100.00;100940.06;5008444;28;20209;-85
2023/08/13 00:47:16;;;;;;;4.07;2.43;;;;;;;18.24;100.00;100945.59;5020015;28;20207;-87
2023/08/13 00:49:43;;;;;;;3.23;2.23;;;;;;;18.24;100.00;100944.75;5026573;28;20290;-85
2023/08/13 00:52:10;;;;;;;2.80;2.57;;;;;;;18.21;100.00;100940.47;5041930;28;20581;-85
2023/08/13 00:54:36;;;;;;;3.57;2.80;;;;;;;18.21;100.00;100942.31;5013399;28;20271;-85
2023/08/13 00:57:03;;;;;;;4.13;2.60;;;;;;;18.21;100.00;100955.81;5014626;28;20574;-85
2023/08/13 00:59:34;;;;;;;3.30;2.43;;;;;;;18.18;100.00;100948.84;5010395;28;20198;-85
2023/08/13 01:02:01;;;;;;;3.10;2.37;;;;;;;18.15;100.00;100945.56;5018939;28;20279;-85
2023/08/13 01:04:27;;;;;;;4.20;2.67;;;;;;;18.15;100.00;100949.09;5013493;28;20217;-84
2023/08/13 01:07:03;;;;;;;2.97;2.60;;;;;;;18.14;100.00;100962.72;5013141;28;20253;-84
2023/08/13 01:09:38;;;;;;;4.43;2.70;;;;;;;18.12;100.00;100945.84;5019758;28;20702;-84
2023/08/13 01:12:14;;;;;;;4.50;2.40;;;;;;;18.12;100.00;100949.38;5013209;28;20233;-85
2023/08/13 01:14:49;;;;;;;3.40;2.73;;;;;;;18.09;100.00;100951.53;5010522;28;20199;-85
2023/08/13 01:17:18;;;;;;;3.20;2.47;;;;;;;18.11;100.00;100949.50;5014356;28;20209;-86
2023/08/13 01:19:44;;;;;;;3.60;2.53;;;;;;;18.11;100.00;100949.50;5017707;28;20200;-87
2023/08/13 01:22:11;;;;;;;3.73;2.87;;;;;;;18.08;100.00;100949.81;5023516;28;20245;-85
2023/08/13 01:24:39;;;;;;;7.40;2.80;;;;;;;18.07;100.00;100950.81;5008193;28;20205;-85
2023/08/13 01:27:23;;;;;;;3.93;2.73;;;;;;;18.03;100.00;100953.78;5008542;28;20217;-84
2023/08/13 01:29:55;;;;;;;4.50;2.63;;;;;;;18.03;100.00;100959.16;5005994;28;20207;-83
2023/08/13 01:32:25;;;;;;;3.63;2.80;;;;;;;18.00;100.00;100959.44;5014370;28;20240;-84
2023/08/13 01:34:52;;;;;;;5.30;3.37;;;;;;;17.97;100.00;100959.69;5008336;28;20653;-82
2023/08/13 01:37:21;;;;;;;3.43;3.03;;;;;;;17.97;100.00;100953.47;5005305;28;20196;-83
2023/08/13 01:39:49;;;;;;;4.27;3.10;;;;;;;17.96;100.00;100957.13;5033773;28;20220;-83
2023/08/13 01:42:19;;;;;;;4.77;2.87;;;;;;;17.97;100.00;100958.84;5011407;28;20236;-83
2023/08/13 01:44:46;;;;;;;9.53;3.07;;;;;;;17.92;100.00;100959.25;5032955;28;20679;-84
2023/08/13 01:47:12;;;;;;;4.03;3.20;;;;;;;17.88;100.00;100957.84;5008949;28;20196;-84
2023/08/13 01:49:39;;;;;;;5.33;3.10;;;;;;;17.87;100.00;100955.28;5006532;28;20204;-84
2023/08/13 01:52:06;;;;;;;4.40;2.80;;;;;;;17.85;100.00;100955.41;5006853;28;20226;-83
2023/08/13 01:54:32;;;;;;;4.47;3.20;;;;;;;17.83;100.00;100957.38;5006733;28;20209;-83
2023/08/13 01:57:00;;;;;;;5.23;3.30;;;;;;;17.82;100.00;100963.75;5008387;28;20212;-83
2023/08/13 01:59:26;;;;;;;4.03;3.40;;;;;;;17.81;100.00;100953.97;5006858;28;20210;-82
2023/08/13 02:01:53;;;;;;;4.93;3.20;;;;;;;17.83;100.00;100962.78;4994517;28;20653;-82
2023/08/13 02:04:19;;;;;;;3.20;2.90;;;;;;;17.82;100.00;100963.75;5011935;28;21323;-82
2023/08/13 02:06:46;;;;;;;3.90;2.73;;;;;;;17.82;100.00;100969.16;5014844;28;20578;-84
2023/08/13 02:09:12;;;;;;;4.40;2.90;;;;;;;17.83;100.00;100970.00;5005610;28;20658;-83
2023/08/13 02:11:39;;;;;;;5.33;2.87;;;;;;;17.82;100.00;100962.91;5008960;28;20689;-84
2023/08/13 02:14:07;;;;;;;5.60;2.97;;;;;;;17.80;100.00;100960.34;5043792;28;20648;-83
2023/08/13 02:16:33;;;;;;;7.43;2.93;;;;;;;17.82;100.00;100957.53;5012542;28;20239;-83
2023/08/13 02:19:00;;;;;;;4.03;2.87;;;;;;;17.81;100.00;100959.38;5014289;28;20203;-83
2023/08/13 02:21:26;;;;;;;4.53;3.00;;;;;;;17.81;100.00;100963.91;5007356;28;20224;-83
2023/08/13 02:23:53;;;;;;;4.70;2.80;;;;;;;17.79;100.00;100969.41;5014193;28;20221;-83
2023/08/13 02:26:19;;;;;;;3.93;2.90;;;;;;;17.80;100.00;100963.03;5010311;28;20849;-84
2023/08/13 02:28:46;;;;;;;4.73;3.03;;;;;;;17.81;100.00;100964.75;5008970;28;20690;-84
2023/08/13 02:31:14;;;;;;;7.70;3.10;;;;;;;17.80;100.00;100965.75;5008859;28;20224;-83
2023/08/13 02:33:40;;;;;;;6.37;2.93;;;;;;;17.78;100.00;100958.78;5009569;28;20229;-83
2023/08/13 02:36:06;;;;;;;5.47;3.27;;;;;;;17.78;100.00;100967.72;5008879;28;20668;-83
2023/08/13 02:38:33;;;;;;;5.47;2.90;;;;;;;17.77;100.00;100960.63;5041397;28;20208;-84
2023/08/13 02:40:59;;;;;;;5.93;2.73;;;;;;;17.75;100.00;100970.66;5009153;28;20234;-82
2023/08/13 02:43:27;;;;;;;6.47;2.73;;;;;;;17.74;100.00;100965.41;5015482;28;20206;-83
2023/08/13 02:45:54;;;;;;;3.93;2.70;;;;;;;17.71;100.00;100976.50;5040322;28;20254;-82
2023/08/13 02:48:22;;;;;;;4.73;2.40;;;;;;;17.68;100.00;100977.59;5022904;28;20577;-83
2023/08/13 02:50:48;;;;;;;5.20;2.93;;;;;;;17.68;100.00;100973.06;5007146;28;20209;-83
2023/08/13 02:53:15;;;;;;;4.37;2.90;;;;;;;17.69;100.00;100966.69;5025197;28;20206;-82
2023/08/13 02:55:41;;;;;;;5.13;2.90;;;;;;;17.68;100.00;100967.69;5008170;28;20203;-83
2023/08/13 02:58:08;;;;;;;4.13;2.70;;;;;;;17.69;100.00;100976.63;5012655;28;20226;-84
2023/08/13 03:00:34;;;;;;;3.27;2.30;;;;;;;17.67;100.00;100965.13;5033769;28;20300;-83
2023/08/13 03:03:00;;;;;;;5.33;2.80;;;;;;;17.65;100.00;100967.94;5004740;28;20208;-83
2023/08/13 03:05:30;;;;;;;5.67;2.53;;;;;;;17.63;100.00;100952.88;5009660;28;20203;-84
2023/08/13 03:07:56;;;;;;;4.17;2.70;;;;;;;17.61;100.00;100966.47;5029912;28;20205;-84
2023/08/13 03:10:23;;;;;;;4.60;2.83;;;;;;;17.62;100.00;100964.63;5004446;28;20208;-85
2023/08/13 03:12:50;;;;;;;3.90;2.90;;;;;;;17.61;100.00;100961.09;5007063;28;20228;-83
2023/08/13 03:15:16;;;;;;;5.67;3.07;;;;;;;17.61;100.00;100960.22;5005340;28;20221;-83
2023/08/13 03:17:42;;;;;;;4.50;2.93;;;;;;;17.61;100.00;100961.09;5004630;28;20205;-83
2023/08/13 03:20:10;;;;;;;5.17;2.87;;;;;;;17.61;100.00;100968.31;5012828;28;20217;-83
2023/08/13 03:22:38;;;;;;;5.97;3.20;;;;;;;17.61;100.00;100971.00;5010509;28;20238;-83
2023/08/13 03:25:05;;;;;;;5.10;2.50;;;;;;;17.61;100.00;100965.63;5010073;28;20637;-83
2023/08/13 03:27:31;;;;;;;3.37;3.07;;;;;;;17.62;100.00;100970.03;5008276;28;20215;-83
2023/08/13 03:29:58;;;;;;;4.10;2.80;;;;;;;17.63;100.00;100969.88;5005489;28;20220;-83
2023/08/13 03:32:24;;;;;;;4.83;2.90;;;;;;;17.64;100.00;100977.03;5008185;28;20589;-82
2023/08/13 03:34:51;;;;;;;6.07;3.60;;;;;;;17.63;100.00;100969.03;5022400;28;20215;-84
2023/08/13 03:37:17;;;;;;;3.97;3.27;;;;;;;17.63;100.00;100963.66;5020524;28;20211;-83
2023/08/13 03:39:45;;;;;;;7.60;3.00;;;;;;;17.61;100.00;100974.56;5012012;28;20209;-83
2023/08/13 03:42:11;;;;;;;5.03;2.73;;;;;;;17.64;100.00;100971.63;5005903;28;20239;-82
2023/08/13 03:44:38;;;;;;;3.40;2.90;;;;;;;17.65;100.00;100975.19;5019550;28;20688;-83
2023/08/13 03:47:05;;;;;;;4.10;3.37;;;;;;;17.66;100.00;100974.19;5027904;28;20573;-83
2023/08/13 03:49:31;;;;;;;5.70;3.13;;;;;;;17.66;100.00;100974.19;5005063;28;20211;-83
2023/08/13 03:51:58;;;;;;;5.70;3.83;;;;;;;17.64;100.00;100971.63;5014201;28;20234;-84
2023/08/13 03:54:24;;;;;;;5.57;3.10;;;;;;;17.65;100.00;100972.47;5013695;28;20214;-83
2023/08/13 03:56:52;;;;;;;3.50;2.90;;;;;;;17.63;100.00;100974.41;5008457;28;20221;-83
2023/08/13 03:59:19;;;;;;;5.93;3.37;;;;;;;17.62;100.00;100973.56;5003351;28;20234;-82
2023/08/13 04:01:45;;;;;;;4.53;2.83;;;;;;;17.64;100.00;100973.47;5004970;28;20697;-83
2023/08/13 04:04:11;;;;;;;3.87;3.20;;;;;;;17.63;100.00;100974.41;5004055;28;20577;-82
2023/08/13 04:06:39;;;;;;;4.97;3.17;;;;;;;17.60;100.00;100978.22;5000395;28;20673;-83
2023/08/13 04:09:07;;;;;;;3.47;3.17;;;;;;;17.60;100.00;100985.47;5011493;28;20218;-82
2023/08/13 04:11:33;;;;;;;3.57;3.10;;;;;;;17.59;100.00;100983.75;5042207;28;20227;-83
2023/08/13 04:14:01;;;;;;;4.53;3.30;;;;;;;17.63;100.00;100972.59;5007745;28;20658;-82
2023/08/13 04:16:28;;;;;;;3.40;3.10;;;;;;;17.63;100.00;100975.28;5000648;28;20211;-82
2023/08/13 04:18:54;;;;;;;4.23;2.87;;;;;;;17.62;100.00;100975.41;5003781;28;20205;-83
2023/08/13 04:21:21;;;;;;;3.40;3.10;;;;;;;17.63;100.00;100983.34;5000459;28;20236;-83
2023/08/13 04:23:47;;;;;;;4.67;3.13;;;;;;;17.62;100.00;100978.97;5006874;28;20209;-83
2023/08/13 04:26:14;;;;;;;5.53;3.20;;;;;;;17.63;100.00;100983.34;5008847;28;20205;-84
2023/08/13 04:28:40;;;;;;;4.73;3.10;;;;;;;17.63;100.00;100985.19;5008168;28;20211;-83
2023/08/13 04:31:08;;;;;;;3.87;2.90;;;;;;;17.64;100.00;100986.94;5007908;28;20228;-83
2023/08/13 04:33:34;;;;;;;4.13;3.50;;;;;;;17.64;100.00;100976.16;5005834;28;20215;-85
2023/08/13 04:36:01;;;;;;;3.40;3.03;;;;;;;17.65;100.00;100972.47;5005927;28;20207;-84
2023/08/13 04:38:27;;;;;;;4.43;3.20;;;;;;;17.64;100.00;100979.72;5008973;28;20209;-83
2023/08/13 04:40:56;;;;;;;4.47;3.10;;;;;;;17.65;100.00;100972.47;5012931;28;20211;-83
2023/08/13 04:43:22;;;;;;;5.80;3.27;;;;;;;17.68;100.00;100973.06;5010079;28;20208;-83
2023/08/13 04:45:49;;;;;;;4.20;3.23;;;;;;;17.71;100.00;100977.34;5011810;28;20295;-83
2023/08/13 04:48:18;;;;;;;4.03;3.00;;;;;;;17.73;100.00;100979.91;5010689;28;20250;-83
2023/08/13 04:50:45;;;;;;;5.30;3.20;;;;;;;17.73;100.00;100975.38;5026204;28;20211;-82
2023/08/13 04:53:12;;;;;;;5.40;2.97;;;;;;;17.71;100.00;100971.97;5021004;28;20208;-83
2023/08/13 04:55:39;;;;;;;3.47;3.10;;;;;;;17.71;100.00;100971.97;5017714;28;20304;-83
2023/08/13 04:58:06;;;;;;;5.43;3.17;;;;;;;17.75;100.00;100976.06;5017299;28;20429;-81
2023/08/13 05:00:32;;;;;;;4.83;3.20;;;;;;;17.73;100.00;100979.91;5009913;28;20214;-83
2023/08/13 05:03:01;;;;;;;4.17;2.90;;;;;;;17.69;100.00;100976.63;5010855;28;20317;-83
2023/08/13 05:05:29;;;;;;;4.23;3.17;;;;;;;17.69;100.00;100979.31;5014221;28;20200;-83
2023/08/13 05:07:56;;;;;;;3.73;3.13;;;;;;;17.68;100.00;100983.84;5027500;28;20248;-83
2023/08/13 05:10:25;;;;;;;4.00;3.27;;;;;;;17.66;100.00;100982.28;5012096;28;20239;-84
2023/08/13 05:12:52;;;;;;;5.70;2.90;;;;;;;17.67;100.00;100990.22;5012796;28;20236;-84
2023/08/13 05:15:19;;;;;;;4.07;2.93;;;;;;;17.68;100.00;100989.25;5013310;28;20219;-84
2023/08/13 05:17:46;;;;;;;3.73;2.80;;;;;;;17.68;100.00;100983.00;5015483;28;20240;-84
2023/08/13 05:20:12;;;;;;;3.40;2.87;;;;;;;17.69;100.00;100977.47;5011286;28;20216;-84
2023/08/13 05:22:41;;;;;;;5.27;3.03;;;;;;;17.70;100.00;100991.78;5009942;28;20244;-82
2023/08/13 05:25:08;;;;;;;5.10;3.13;;;;;;;17.71;100.00;100989.97;5009725;28;20273;-83
2023/08/13 05:27:35;;;;;;;4.77;3.50;;;;;;;17.74;100.00;100995.06;5014019;28;20229;-83
2023/08/13 05:30:03;;;;;;;3.93;3.57;;;;;;;17.74;100.00;100990.50;5036914;28;20221;-84
2023/08/13 05:32:30;;;;;;;5.20;3.17;;;;;;;17.75;100.00;100980.59;5015919;28;20227;-84
2023/08/13 05:34:57;;;;;;;4.27;3.20;;;;;;;17.77;100.00;100987.56;5016144;28;20207;-83
2023/08/13 05:37:23;;;;;;;4.27;2.93;;;;;;;17.80;100.00;100995.38;5010813;28;20284;-83
2023/08/13 05:39:52;;;;;;;6.63;3.50;;;;;;;17.83;100.00;100992.41;5011032;28;20210;-83
2023/08/13 05:42:19;;;;;;;4.47;3.00;;;;;;;17.85;100.00;100995.84;5013792;28;20746;-83
2023/08/13 05:44:45;;;;;;;3.90;3.03;;;;;;;17.87;100.00;100991.16;5012257;28;20603;-82
2023/08/13 05:47:12;;;;;;;4.33;2.80;;;;;;;17.93;100.00;100996.00;5010242;28;20577;-83
2023/08/13 05:49:38;;;;;;;3.53;2.53;;;;;;;17.98;100.00;100996.44;5003111;28;20322;-82
2023/08/13 05:52:05;;;;;;;4.07;3.13;;;;;;;18.01;100.00;101001.56;5014358;28;20241;-83
2023/08/13 05:54:32;;;;;;;3.93;3.13;;;;;;;18.06;100.00;101003.00;5013129;28;20695;-83
2023/08/13 05:56:59;;;;;;;4.67;3.30;;;;;;;18.10;100.00;100999.88;5005752;28;20225;-83
2023/08/13 05:59:27;;;;;;;3.43;2.80;;;;;;;18.16;100.00;101006.56;5003668;28;20206;-84
2023/08/13 06:01:53;;;;;;;3.73;2.90;;;;;;;18.23;100.00;100999.66;5009633;28;20255;-84
2023/08/13 06:04:20;;;;;;;4.53;2.73;;;;;;;18.30;99.21;101004.34;5007582;28;20205;-83
2023/08/13 06:06:46;;;;;;;5.10;2.80;;;;;;;18.43;97.56;101001.41;5009834;28;20207;-84
2023/08/13 06:09:13;;;;;;;5.37;2.97;;;;;;;18.51;96.77;101006.09;5017068;28;20209;-83
2023/08/13 06:11:39;;;;;;;3.67;2.87;;;;;;;18.56;95.87;101002.00;5009030;28;20578;-83
2023/08/13 06:14:07;;;;;;;3.93;3.07;;;;;;;18.68;95.16;101013.53;5009939;28;20297;-83
2023/08/13 06:16:34;;;;;;;3.83;2.80;;;;;;;18.73;95.06;101012.13;5007910;28;20207;-83
2023/08/13 06:19:00;;;;;;;5.90;3.37;;;;;;;18.82;94.61;101020.34;5008004;28;20716;-85
2023/08/13 06:21:27;;;;;;;5.33;2.73;;;;;;;18.92;93.68;101015.81;5012513;28;20220;-84
2023/08/13 06:23:53;;;;;;;4.90;2.70;;;;;;;18.98;93.34;101024.22;5007175;28;20225;-85
2023/08/13 06:26:20;;;;;;;4.27;2.50;;;;;;;19.10;93.46;101013.25;5011898;28;20227;-85
2023/08/13 06:28:46;;;;;;;5.03;2.90;;;;;;;19.17;92.24;101020.63;4999460;28;20224;-85
2023/08/13 06:31:14;;;;;;;2.53;2.30;;;;;;;19.21;92.07;101024.75;5006352;28;20226;-85
2023/08/13 06:33:41;;;;;;;4.70;2.77;;;;;;;19.28;92.88;101025.03;5010503;28;20199;-85
2023/08/13 06:36:07;;;;;;;4.40;3.17;;;;;;;19.36;93.25;101017.91;5009412;28;20284;-85
2023/08/13 06:38:36;;;;;;;3.50;2.67;;;;;;;19.43;92.38;101027.13;5014733;28;20211;-86
2023/08/13 06:41:05;;;;;;;4.67;2.97;;;;;;;19.46;92.06;101026.00;5009089;28;20296;-85
2023/08/13 06:43:32;;;;;;;2.90;2.47;;;;;;;19.49;91.49;101033.81;5016023;28;20769;-85
2023/08/13 06:45:59;;;;;;;3.50;2.87;;;;;;;19.51;91.21;101029.16;5015601;28;20212;-85
2023/08/13 06:48:33;;;;;;;4.57;2.50;;;;;;;19.57;90.34;101031.25;5010741;28;20209;-86
2023/08/13 06:51:00;;;;;;;5.00;2.73;;;;;;;19.60;90.40;101022.88;5010668;28;20322;-85
2023/08/13 06:53:27;;;;;;;4.97;2.70;;;;;;;19.65;89.52;101027.84;5015236;28;20210;-85
2023/08/13 06:55:54;;;;;;;4.07;2.40;;;;;;;19.73;88.32;101026.09;5011704;28;20289;-85
2023/08/13 06:58:23;;;;;;;5.00;2.50;;;;;;;19.79;88.42;101026.50;5012483;28;20211;-85
2023/08/13 07:00:53;;;;;;;3.37;2.30;;;;;;;19.87;87.22;101019.38;5014581;28;20215;-85
2023/08/13 07:03:26;;;;;;;3.67;2.17;;;;;;;19.93;84.31;101018.78;5017232;28;20227;-85
2023/08/13 07:05:54;;;;;;;6.27;2.47;;;;;;;19.98;83.70;101032.69;5023020;28;20219;-85
2023/08/13 07:08:24;;;;;;;3.47;2.17;;;;;;;20.00;82.79;101024.44;5027577;28;20218;-85
2023/08/13 07:10:53;;;;;;;4.70;2.67;;;;;;;20.02;81.48;101027.84;5013372;28;20213;-85
2023/08/13 07:13:20;;;;;;;5.05;2.47;;;;;;;20.04;79.49;101029.41;5015350;28;20210;-85
2023/08/13 07:15:47;;;;;;;4.23;2.20;;;;;;;20.07;80.32;101025.53;5022783;28;20215;-85
2023/08/13 07:18:17;;;;;;;4.70;2.20;;;;;;;20.19;78.48;101028.91;5013299;28;20203;-85
2023/08/13 07:20:44;;;;;;;5.57;2.53;;;;;;;20.26;78.49;101035.41;5012185;28;20232;-85
2023/08/13 07:23:12;;;;;;;3.58;2.08;;;;;;;20.32;76.77;101030.25;5018273;28;20244;-86
2023/08/13 07:25:42;;;;;;;3.65;2.00;;;;;;;20.39;76.06;101023.28;5015869;28;20217;-85
2023/08/13 07:28:12;;;;;;;6.45;2.13;;;;;;;20.43;76.57;101021.97;5018301;28;20628;-86
2023/08/13 07:30:39;;;;;;;5.47;2.28;;;;;;;20.49;75.33;101023.22;5015224;28;20572;-86
2023/08/13 07:33:07;;;;;;;3.38;1.75;;;;;;;20.53;74.51;101021.91;5017794;28;20774;-85
2023/08/13 07:35:37;;;;;;;5.68;2.03;;;;;;;20.60;74.62;101033.00;5016700;28;20675;-86
2023/08/13 07:38:04;;;;;;;4.13;2.13;;;;;;;20.66;75.02;101022.38;5041656;28;20207;-86
2023/08/13 07:40:33;;;;;;;2.40;1.70;;;;;;;20.71;74.80;101021.94;5013494;28;20301;-85
2023/08/13 07:43:00;;;;;;;4.72;1.80;;;;;;;20.76;72.92;101019.63;5008432;28;20226;-84
2023/08/13 07:45:26;;;;;;;4.63;1.60;;;;;;;20.84;71.41;101021.53;5016967;28;20202;-87
2023/08/13 07:47:53;;;;;;;4.38;1.83;;;;;;;20.93;71.39;101026.91;5015488;28;20210;-85
2023/08/13 07:50:20;;;;;;;5.70;2.05;;;;;;;21.00;71.39;101027.09;5014507;28;20218;-85
2023/08/13 07:52:46;;;;;;;4.47;1.80;;;;;;;21.00;69.19;101029.81;5016630;28;20237;-85
2023/08/13 07:55:13;;;;;;;4.00;1.80;;;;;;;21.05;68.68;101022.94;5014625;28;20202;-86
2023/08/13 07:57:41;;;;;;;2.92;1.50;;;;;;;21.09;68.06;101027.03;5017084;28;20289;-85
2023/08/13 08:00:10;;;;;;;4.65;2.13;;;;;;;21.13;67.80;101035.72;5014204;28;20299;-86
2023/08/13 08:02:37;;;;;;;4.32;1.77;;;;;;;21.20;66.64;101033.25;5007748;28;20267;-86
2023/08/13 08:05:05;;;;;;;5.68;2.10;;;;;;;21.26;66.37;101028.06;5012788;28;20217;-87
2023/08/13 08:07:32;;;;;;;2.53;1.52;;;;;;;21.32;65.67;101030.13;5008792;28;20239;-86
2023/08/13 08:09:59;;;;;;;3.88;2.20;;;;;;;21.33;65.83;101031.81;5008135;28;20203;-86
2023/08/13 08:12:25;;;;;;;3.67;1.95;;;;;;;21.35;65.58;101024.41;5011384;28;20237;-87
2023/08/13 08:14:54;;;;;;;4.97;1.75;;;;;;;21.41;66.17;101025.63;5013900;28;20212;-86
2023/08/13 08:17:21;;;;;;;5.22;1.60;;;;;;;21.47;66.24;101025.00;5010402;28;20267;-87
2023/08/13 08:19:48;;;;;;;3.75;1.45;;;;;;;21.55;66.51;101032.34;5029117;28;20549;-87
2023/08/13 08:22:18;;;;;;;3.67;1.50;;;;;;;21.66;66.44;101026.66;5005326;28;20262;-87
2023/08/13 08:24:45;;;;;;;3.85;1.70;;;;;;;21.74;64.30;101032.13;5013090;28;20706;-86
2023/08/13 08:27:15;;;;;;;6.43;1.65;;;;;;;21.85;64.35;101031.00;5025415;28;20203;-86
2023/08/13 08:29:41;;;;;;;6.43;1.30;;;;;;;21.90;62.16;101026.78;5014222;28;20289;-87
2023/08/13 08:32:09;;;;;;;3.05;1.38;;;;;;;21.93;61.82;101033.75;5007869;28;20232;-86
2023/08/13 08:34:36;;;;;;;3.90;1.17;;;;;;;21.96;62.58;101033.44;5016201;28;20553;-87
2023/08/13 08:37:15;;;;;;;3.72;1.25;;;;;;;21.96;61.95;101031.56;5009562;28;20234;-86
2023/08/13 08:40:04;;;;;;;7.15;1.45;;;;;;;22.04;61.93;101023.50;5022970;28;20285;-87
2023/08/13 08:42:32;;;;;;;4.95;1.48;;;;;;;22.17;62.60;101023.91;5029112;28;20275;-86
2023/08/13 08:45:04;;;;;;;3.33;1.63;;;;;;;22.28;61.77;101021.91;5020304;28;20213;-86
2023/08/13 08:47:36;;;;;;;4.40;1.35;;;;;;;22.36;61.26;101025.53;5024538;28;20207;-87
2023/08/13 08:50:10;;;;;;;3.55;1.38;;;;;;;22.47;61.47;101027.06;5047704;28;20199;-86
2023/08/13 08:52:42;;;;;;;2.80;1.30;;;;;;;22.59;60.90;101033.88;5040635;28;20230;-86
2023/08/13 08:55:15;;;;;;;3.20;1.13;;;;;;;22.62;59.28;101024.56;5015063;28;20532;-86
2023/08/13 08:57:46;;;;;;;2.72;1.13;;;;;;;22.70;60.13;101024.59;5064376;28;20805;-87
2023/08/13 09:00:18;;;;;;;4.43;1.45;;;;;;;22.81;60.08;101010.72;5021217;28;20201;-87
2023/08/13 09:02:53;;;;;;;5.32;1.70;;;;;;;22.94;59.95;101019.22;5019986;28;20242;-87
2023/08/13 09:05:27;;;;;;;4.45;1.45;;;;;;;23.12;60.34;101014.47;5020779;28;20203;-87
2023/08/13 09:07:58;;;;;;;4.97;1.48;;;;;;;23.29;57.80;101009.06;5020600;28;20293;-86
2023/08/13 09:10:37;;;;;;;6.75;1.67;;;;;;;23.39;56.90;101002.41;5023390;28;20244;-86
2023/08/13 09:13:10;;;;;;;4.28;1.90;;;;;;;23.51;55.63;101008.34;5031871;28;20226;-86
2023/08/13 09:15:45;;;;;;;8.88;1.60;;;;;;;23.57;54.43;101018.56;5019712;28;20561;-86
2023/08/13 09:18:18;;;;;;;3.72;1.65;;;;;;;23.61;55.08;101011.75;5016864;28;20218;-87
2023/08/13 09:20:50;;;;;;;4.90;1.60;;;;;;;23.64;54.43;101013.28;5021118;28;20206;-87
2023/08/13 09:23:29;;;;;;;3.53;1.35;;;;;;;23.68;53.80;101010.03;5017831;28;20307;-87
2023/08/13 09:26:07;;;;;;;3.63;1.50;;;;;;;23.73;53.92;101002.22;5018631;28;20211;-87
2023/08/13 09:28:34;;;;;;;3.10;1.50;;;;;;;23.79;53.80;101011.56;5018336;28;20281;-87
2023/08/13 09:31:02;;;;;;;4.43;1.55;;;;;;;23.88;53.66;101005.06;5014506;28;20714;-86
2023/08/13 09:33:33;;;;;;;4.10;1.80;;;;;;;24.01;53.85;100999.03;5030141;28;20199;-86
2023/08/13 09:36:02;;;;;;;4.57;1.45;;;;;;;24.02;54.01;101003.47;5020915;28;20199;-86
2023/08/13 09:38:32;;;;;;;8.43;2.45;;;;;;;24.01;53.77;101007.22;5028145;28;20213;-86
2023/08/13 09:41:00;;;;;;;3.65;1.83;;;;;;;24.02;54.01;101003.47;5017206;28;20647;-87
2023/08/13 09:43:31;;;;;;;3.03;1.40;;;;;;;24.10;54.35;101000.72;5013281;28;20237;-78
2023/08/13 09:46:01;;;;;;;3.22;1.55;;;;;;;24.07;54.16;101001.06;5014065;28;20197;-79
2023/08/13 09:48:30;;;;;;;3.10;1.63;;;;;;;24.04;53.23;100996.81;5015403;28;20294;-79
2023/08/13 09:50:58;;;;;;;4.95;1.95;;;;;;;24.06;53.71;101002.94;5015408;28;20286;-79
2023/08/13 09:53:27;;;;;;;4.38;1.63;;;;;;;24.06;53.94;100997.50;5015437;28;20584;-80
2023/08/13 09:55:57;;;;;;;5.45;1.70;;;;;;;24.11;53.88;101005.16;5015777;28;20210;-79
2023/08/13 09:58:25;;;;;;;4.53;1.63;;;;;;;24.11;52.92;101008.72;5011933;28;20286;-80
2023/08/13 10:00:52;;;;;;;4.63;1.63;;;;;;;24.08;53.67;100995.47;5012330;28;20214;-80
2023/08/13 10:03:19;;;;;;;5.93;2.33;;;;;;;24.06;53.52;100997.50;5012425;28;20231;-79
2023/08/13 10:05:48;;;;;;;5.18;1.90;;;;;;;24.09;54.06;100994.44;5012469;28;20219;-79
2023/08/13 10:08:15;;;;;;;4.68;1.58;;;;;;;24.15;54.47;100996.47;5011842;28;20679;-79
2023/08/13 10:10:42;;;;;;;4.43;1.73;;;;;;;24.27;54.16;100998.81;5011772;28;20198;-79
2023/08/13 10:13:09;;;;;;;3.33;1.70;;;;;;;24.37;54.15;100999.44;5014239;28;20229;-80
2023/08/13 10:15:38;;;;;;;4.72;1.80;;;;;;;24.45;53.95;101002.13;5013766;28;20206;-80
2023/08/13 10:18:05;;;;;;;3.13;1.70;;;;;;;24.48;52.71;100999.03;5016081;28;20234;-80
2023/08/13 10:20:32;;;;;;;4.75;1.80;;;;;;;24.49;53.08;101000.75;5035258;28;20202;-80
2023/08/13 10:23:01;;;;;;;4.90;1.80;;;;;;;24.50;52.43;100988.81;5026974;28;20218;-79
2023/08/13 10:25:29;;;;;;;5.45;1.42;;;;;;;24.54;53.13;100990.16;5014951;28;20217;-80
2023/08/13 10:27:57;;;;;;;2.72;1.42;;;;;;;24.59;53.30;100993.19;5016063;28;20241;-80
2023/08/13 10:30:23;;;;;;;4.63;1.75;;;;;;;24.57;53.03;100996.06;5016183;28;20215;-78
2023/08/13 10:32:54;;;;;;;3.97;1.70;;;;;;;24.57;52.60;100996.06;5020297;28;20222;-79
2023/08/13 10:35:25;;;;;;;3.42;1.83;;;;;;;24.55;52.73;100994.56;5006809;28;20206;-78
2023/08/13 10:37:53;;;;;;;3.22;1.75;;;;;;;24.48;52.65;100991.72;5018804;28;20198;-77
2023/08/13 10:40:21;;;;;;;3.00;1.90;;;;;;;24.45;52.41;100989.34;5004867;28;20305;-79
2023/08/13 10:42:50;;;;;;;5.68;1.75;;;;;;;24.46;52.62;100998.38;5010920;28;20222;-79
2023/08/13 10:45:18;;;;;;;4.90;1.80;;;;;;;24.51;53.54;100988.66;5014195;28;20206;-79
2023/08/13 10:47:46;;;;;;;4.88;1.30;;;;;;;24.58;53.90;100984.16;5049876;28;20199;-80
2023/08/13 10:50:21;;;;;;;3.28;1.77;;;;;;;24.65;53.50;100975.28;5004063;28;20211;-80
2023/08/13 10:52:48;;;;;;;4.13;1.63;;;;;;;24.72;53.33;100974.34;5009868;28;20222;-81
2023/08/13 10:55:18;;;;;;;3.75;1.83;;;;;;;24.80;53.45;100979.75;5034327;28;20274;-80
2023/08/13 10:57:51;;;;;;;4.80;2.13;;;;;;;24.81;52.26;100973.28;5019539;28;20206;-81
2023/08/13 11:00:19;;;;;;;3.13;1.55;;;;;;;24.84;52.90;100970.19;5011337;28;20215;-80
2023/08/13 11:02:46;;;;;;;4.95;1.60;;;;;;;24.84;52.72;100969.34;5012542;28;20657;-80
2023/08/13 11:05:13;;;;;;;9.02;1.75;;;;;;;24.86;53.56;100978.19;5020865;28;20231;-80
2023/08/13 11:07:39;;;;;;;3.30;1.50;;;;;;;24.89;53.08;100973.25;5018978;28;20633;-81
2023/08/13 11:10:08;;;;;;;4.00;1.42;;;;;;;24.82;52.21;100969.53;5014115;28;20217;-82
2023/08/13 11:12:34;;;;;;;5.95;1.70;;;;;;;24.80;51.94;100971.59;5001500;28;20223;-78
2023/08/13 11:15:03;;;;;;;3.45;1.35;;;;;;;24.76;52.07;100962.06;5017917;28;20212;-81
2023/08/13 11:17:30;;;;;;;3.90;1.50;;;;;;;24.83;52.67;100964.94;5032824;28;20199;-80
2023/08/13 11:19:57;;;;;;;5.28;1.50;;;;;;;24.84;52.46;100962.03;5016535;28;20238;-79
2023/08/13 11:22:27;;;;;;;4.22;1.60;;;;;;;24.89;53.29;100964.22;5020224;28;20310;-81
2023/08/13 11:24:54;;;;;;;2.38;1.23;;;;;;;24.95;52.93;100965.38;5016764;28;20258;-80